Latest Weather Observations for Jacup

IDW60801

Issued at 10:33 am WST Monday 18 October 2021 (issued every 10 minutes, with the page automatically refreshed every 10 minutes)

About weather observations | Map of weather stations | Latest weather observations for WA | Other Formats
Station Details ID: 010905 Name: JACUP Lat: -33.89 Lon: 119.11 Height: 305.0 m
Data from the previous 72 hours. | See also: Recent months at Jacup
Date/Time
WST
Temp
°C
App
Temp
°C
Dew
Point
°C
Rel
Hum
%
Delta-T
°C
Wind Press
QNH
hPa
Press
MSL
hPa
Rain since
9am
mm
Dir  Spd
km/h
Gust
km/h
Spd
kts
Gust
kts
18/10:30am 21.2 18.4 10.1 49 6.1 NNE 15 24 8 13 1011.4 1010.9 0.0
18/10:00am 20.2 17.1 10.3 53 5.4 NE 17 26 9 14 1011.7 1011.2 0.0
18/09:30am 19.7 16.3 10.7 56 5.0 NE 19 30 10 16 1011.9 1011.5 0.0
18/09:00am 17.9 14.3 10.5 62 4.0 NE 20 30 11 16 1012.2 1011.8 0.0
18/08:30am 17.7 14.7 10.6 63 3.9 NE 17 26 9 14 1012.3 1011.9 0.0
18/08:00am 16.6 13.3 9.5 63 3.8 NE 17 22 9 12 1012.1 1011.7 0.0
18/07:30am 15.4 12.2 10.0 70 2.9 NE 17 24 9 13 1011.9 1011.5 0.0
18/07:00am 14.5 11.5 10.5 77 2.1 NNE 17 22 9 12 1011.6 1011.1 0.0
18/06:30am 13.8 11.5 10.6 81 1.7 NE 13 17 7 9 1011.2 1010.7 0.0
18/06:00am 12.7 10.6 11.1 90 0.9 NE 13 19 7 10 1010.9 1010.4 0.0
18/05:30am 12.2 10.7 10.6 90 0.8 NE 9 13 5 7 1010.4 1010.0 0.0
18/05:00am 13.0 11.4 11.4 90 0.9 NE 11 15 6 8 1010.3 1009.9 0.0
18/04:30am 13.5 13.0 11.9 90 0.9 NE 6 11 3 6 1010.3 1009.9 0.0
18/04:00am 13.3 13.8 11.5 89 1.0 CALM 0 0 0 0 1010.4 1010.0 0.0
18/03:30am 13.3 13.8 11.5 89 1.0 CALM 0 0 0 0 1010.1 1009.7 0.0
18/03:00am 13.0 13.4 11.2 89 1.0 CALM 0 0 0 0 1010.1 1009.7 0.0
18/02:30am 12.9 13.3 11.1 89 1.0 CALM 0 0 0 0 1010.1 1009.7 0.0
18/02:00am 12.7 11.9 10.9 89 1.0 SSW 6 7 3 4 1010.4 1010.0 0.0
18/01:30am 12.7 11.9 11.1 90 0.9 SSW 6 7 3 4 1010.6 1010.1 0.0
18/01:00am 12.7 13.1 11.1 90 0.9 CALM 0 0 0 0 1010.7 1010.2 0.0
18/12:30am 12.7 11.9 11.1 90 0.9 E 6 9 3 5 1010.6 1010.1 0.0
18/12:00am 12.0 11.8 10.4 90 0.8 E 2 6 1 3 1010.9 1010.4 0.0
 
Date/Time
WST
Temp
°C
App
Temp
°C
Dew
Point
°C
Rel
Hum
%
Delta-T
°C
Wind Press
QNH
hPa
Press
MSL
hPa
Rain since
9am
mm
Dir  Spd
km/h
Gust
km/h
Spd
kts
Gust
kts
17/11:30pm 12.6 11.6 11.0 90 0.9 E 7 9 4 5 1010.8 1010.3 0.0
17/11:00pm 12.3 10.9 10.9 91 0.7 ENE 9 9 5 5 1010.9 1010.4 0.0
17/10:30pm 11.2 9.4 9.5 89 0.9 ENE 9 13 5 7 1010.8 1010.3 0.0
17/10:00pm 10.6 10.3 8.7 88 1.0 CALM 0 0 0 0 1011.0 1010.5 0.0
17/09:30pm 11.5 10.3 9.4 87 1.1 SE 6 7 3 4 1011.1 1010.6 0.0
17/09:00pm 12.7 11.5 10.4 86 1.2 ESE 7 11 4 6 1010.9 1010.4 0.0
17/08:30pm 13.6 11.5 11.1 85 1.3 SE 13 17 7 9 1010.8 1010.3 0.0
17/08:00pm 14.2 12.2 11.5 84 1.5 SE 13 20 7 11 1010.4 1010.0 0.0
17/07:30pm 14.0 12.7 11.2 83 1.5 SE 9 13 5 7 1010.0 1009.6 0.0
17/07:00pm 14.8 13.0 11.0 78 2.1 SSE 11 17 6 9 1009.3 1008.9 0.0
17/06:30pm 16.6 14.9 11.1 70 3.0 S 11 17 6 9 1008.8 1008.3 0.0
17/06:00pm 19.7 17.2 8.1 47 6.1 WSW 11 17 6 9 1008.4 1007.9 0.0
17/05:30pm 21.7 19.1 7.9 41 7.3 W 11 15 6 8 1008.0 1007.5 0.0
17/05:00pm 22.5 19.4 7.1 37 8.1 W 13 20 7 11 1007.7 1007.2 0.0
17/04:30pm 22.9 19.3 6.6 35 8.5 W 15 22 8 12 1007.4 1006.9 0.0
17/04:00pm 23.2 20.0 6.9 35 8.6 W 13 22 7 12 1007.4 1006.9 0.0
17/03:30pm 23.4 19.5 7.1 35 8.6 W 17 24 9 13 1007.4 1006.9 0.0
17/03:00pm 24.2 20.1 7.8 35 8.8 W 19 35 10 19 1007.5 1007.0 0.0
17/02:30pm 23.9 19.7 7.5 35 8.7 WNW 19 35 10 19 1007.6 1007.1 0.0
17/02:00pm 23.1 19.4 8.0 38 8.1 W 17 30 9 16 1007.6 1007.1 0.0
17/01:30pm 23.6 20.0 8.5 38 8.2 W 17 28 9 15 1007.7 1007.2 0.0
17/01:00pm 22.7 17.8 8.4 40 7.7 W 24 35 13 19 1008.0 1007.5 0.0
17/12:30pm 22.4 18.2 8.1 40 7.6 W 20 37 11 20 1008.1 1007.6 0.0
17/12:00pm 21.6 17.0 8.1 42 7.2 W 22 35 12 19 1008.3 1007.8 0.0
17/11:30am 20.9 16.4 8.5 45 6.6 W 22 35 12 19 1008.4 1007.9 0.0
17/11:00am 20.7 16.7 9.0 47 6.3 W 20 32 11 17 1008.6 1008.1 0.0
17/10:30am 20.0 16.1 9.3 50 5.8 W 20 35 11 19 1008.7 1008.2 0.0
17/10:00am 19.2 14.8 9.1 52 5.4 W 22 35 12 19 1008.9 1008.5 0.0
17/09:30am 18.7 14.9 9.8 56 4.8 WNW 20 35 11 19 1009.1 1008.7 0.0
17/09:00am 17.8 14.2 10.7 63 3.9 WNW 20 33 11 18 1009.1 1008.7 0.0
17/08:30am 16.6 12.5 10.0 65 3.5 WNW 22 33 12 18 1009.0 1008.6 0.0
17/08:00am 16.8 12.9 10.9 68 3.2 WNW 22 35 12 19 1008.9 1008.5 0.0
17/07:30am 15.3 13.3 12.6 84 1.5 WNW 15 26 8 14 1008.6 1008.1 0.0
17/07:00am 14.3 13.1 12.9 91 0.8 WNW 11 19 6 10 1008.5 1008.0 0.0
17/06:30am 12.9 11.8 11.8 93 0.6 WNW 9 15 5 8 1008.3 1007.8 0.0
17/06:00am 11.6 10.0 10.3 92 0.7 WNW 9 13 5 7 1008.3 1007.8 0.0
17/05:30am 11.2 9.9 9.8 91 0.7 W 7 11 4 6 1007.9 1007.4 0.0
17/05:00am 11.6 10.0 10.2 91 0.7 W 9 11 5 6 1007.3 1006.8 0.0
17/04:30am 12.7 10.6 11.1 90 0.9 W 13 20 7 11 1007.0 1006.6 0.0
17/04:00am 13.6 10.6 11.8 89 1.0 WSW 19 26 10 14 1006.8 1006.4 0.0
17/03:30am 13.5 10.4 12.1 91 0.8 W 20 30 11 16 1006.9 1006.5 0.0
17/03:00am 13.2 9.6 11.9 92 0.7 W 22 35 12 19 1006.7 1006.3 0.0
17/02:30am 13.1 9.5 11.8 92 0.7 W 22 35 12 19 1006.6 1006.2 0.0
17/02:00am 13.1 9.5 11.8 92 0.7 W 22 37 12 20 1006.6 1006.2 0.0
17/01:30am 13.4 10.3 12.1 92 0.7 WNW 20 30 11 16 1006.6 1006.2 0.0
17/01:00am 12.7 9.5 11.1 90 0.9 WNW 19 26 10 14 1006.5 1006.1 0.0
17/12:30am 13.1 9.8 11.0 87 1.1 WNW 19 28 10 15 1006.5 1006.1 0.0
17/12:00am 13.0 10.0 10.7 86 1.2 WNW 17 22 9 12 1006.6 1006.2 0.0
 
Date/Time
WST
Temp
°C
App
Temp
°C
Dew
Point
°C
Rel
Hum
%
Delta-T
°C
Wind Press
QNH
hPa
Press
MSL
hPa
Rain since
9am
mm
Dir  Spd
km/h
Gust
km/h
Spd
kts
Gust
kts
16/11:30pm 12.4 9.6 10.0 85 1.2 N 15 19 8 10 1006.8 1006.4 0.0
16/11:00pm 11.7 9.0 9.1 84 1.3 N 13 17 7 9 1006.7 1006.3 0.0
16/10:30pm 12.7 10.3 10.1 84 1.4 N 13 17 7 9 1007.3 1006.8 0.0
16/10:00pm 12.0 9.6 10.1 88 1.0 N 13 19 7 10 1007.5 1007.0 0.0
16/09:30pm 12.6 10.3 10.5 87 1.1 NNE 13 17 7 9 1007.6 1007.1 0.0
16/09:00pm 12.1 9.8 10.3 89 0.9 ENE 13 15 7 8 1007.5 1007.0 0.0
16/08:30pm 12.9 10.4 11.0 88 1.0 ENE 15 19 8 10 1007.5 1007.0 0.0
16/08:00pm 13.7 11.4 11.8 88 1.0 ENE 15 20 8 11 1007.5 1007.0 0.0
16/07:30pm 13.9 11.9 11.4 85 1.4 ENE 13 17 7 9 1007.5 1007.0 0.0
16/07:00pm 15.3 14.1 11.7 79 2.0 E 9 15 5 8 1007.0 1006.6 0.0
16/06:30pm 16.5 14.6 11.9 74 2.5 E 13 17 7 9 1006.5 1006.1 0.0
16/06:00pm 18.3 16.1 12.1 67 3.5 E 15 20 8 11 1006.3 1005.9 0.0
16/05:30pm 20.1 17.0 11.6 58 4.8 ESE 19 30 10 16 1005.9 1005.4 0.0
16/05:00pm 21.2 17.7 10.1 49 6.1 ESE 19 26 10 14 1005.8 1005.3 0.0
16/04:30pm 22.1 18.8 8.2 41 7.4 ESE 15 20 8 11 1005.7 1005.2 0.0
16/04:00pm 24.4 20.2 5.7 30 9.7 ESE 17 20 9 11 1005.8 1005.3 0.0
16/03:30pm 25.4 20.9 7.1 31 9.7 ESE 20 30 11 16 1005.3 1004.8 0.0
16/03:00pm 24.8 19.6 5.6 29 10.0 ESE 22 32 12 17 1005.4 1004.9 0.0
16/02:30pm 23.4 19.7 9.4 41 7.7 ESE 19 28 10 15 1005.8 1005.3 0.0
16/02:00pm 23.4 20.0 10.5 44 7.2 SE 19 26 10 14 1006.0 1005.5 0.0
16/01:30pm 24.3 20.9 6.1 31 9.5 SE 13 17 7 9 1006.1 1005.7 0.0
16/01:00pm 24.5 21.0 5.3 29 9.9 SE 13 17 7 9 1006.2 1005.8 0.0
16/12:30pm 24.3 21.2 5.6 30 9.6 E 11 17 6 9 1006.5 1006.1 0.0
16/12:00pm 24.1 20.5 5.0 29 9.8 ESE 13 17 7 9 1006.5 1006.1 0.0
16/11:30am 23.1 20.3 6.8 35 8.5 SE 11 15 6 8 1007.0 1006.6 0.0
16/11:00am 21.5 19.2 5.8 36 8.0 SE 7 11 4 6 1007.7 1007.2 0.0
16/10:30am 20.7 19.9 6.6 40 7.2 CALM 0 0 0 0 1008.3 1007.8 0.0
16/10:00am 19.9 18.0 7.6 45 6.4 S 7 15 4 8 1008.1 1007.6 0.0
16/09:30am 19.2 16.3 6.7 44 6.4 SSW 11 20 6 11 1008.2 1007.7 0.0
16/09:00am 19.4 16.9 6.5 43 6.6 S 9 17 5 9 1008.4 1007.9 0.0
16/08:30am 19.6 16.2 6.0 41 6.9 NE 13 19 7 10 1008.4 1007.9 0.0
16/08:00am 18.6 15.2 6.1 44 6.3 NNE 13 19 7 10 1008.3 1007.8 0.0
16/07:30am 19.1 14.1 4.5 38 7.1 NE 20 30 11 16 1008.1 1007.6 0.0
16/07:00am 18.1 13.1 4.7 41 6.5 NE 20 28 11 15 1008.3 1007.8 0.0
16/06:30am 17.4 12.0 4.7 43 6.1 NE 22 30 12 16 1008.4 1007.9 0.0
16/06:00am 16.7 11.9 5.6 48 5.5 NE 20 30 11 16 1008.7 1008.2 0.0
16/05:30am 15.7 11.3 6.4 54 4.6 NNE 19 28 10 15 1008.6 1008.1 0.0
16/05:00am 15.3 11.7 6.6 56 4.3 NNE 15 22 8 12 1008.6 1008.1 0.0
16/04:30am 15.7 12.6 7.2 57 4.3 NNE 13 17 7 9 1008.5 1008.0 0.0
16/04:00am 15.8 10.9 7.1 56 4.4 NNE 22 33 12 18 1008.0 1007.5 0.0
16/03:31am 15.8 9.4 7.1 56 4.4 N 30 50 16 27 1008.7 1008.2 0.0
16/03:30am 15.9 9.5 6.9 55 4.5 N 30 43 16 23 1008.7 1008.2 0.0
16/03:00am 15.0 9.1 7.5 61 3.8 NNE 28 41 15 22 1008.5 1008.0 0.0
16/02:30am 13.8 9.7 8.0 68 2.9 NNE 19 24 10 13 1009.0 1008.6 0.0
16/02:00am 13.8 9.5 8.0 68 2.9 N 20 30 11 16 1009.6 1009.2 0.0
16/01:30am 13.6 9.4 8.2 70 2.7 NNE 20 30 11 16 1009.4 1009.0 0.0
16/01:00am 12.9 8.9 9.2 78 1.9 NE 20 30 11 16 1009.6 1009.2 0.0
16/12:30am 12.2 9.6 9.4 83 1.4 NNE 13 19 7 10 1011.2 1010.7 0.0
16/12:00am 11.6 9.0 9.3 86 1.2 ENE 13 17 7 9 1010.9 1010.4 0.0
 
Date/Time
WST
Temp
°C
App
Temp
°C
Dew
Point
°C
Rel
Hum
%
Delta-T
°C
Wind Press
QNH
hPa
Press
MSL
hPa
Rain since
9am
mm
Dir  Spd
km/h
Gust
km/h
Spd
kts
Gust
kts
15/11:30pm 11.4 7.7 9.3 87 1.1 ENE 19 24 10 13 1011.0 1010.5 0.0
15/11:00pm 11.3 7.9 9.0 86 1.2 ENE 17 22 9 12 1011.4 1010.9 0.0
15/10:30pm 11.8 8.1 9.4 85 1.2 ENE 19 26 10 14 1011.7 1011.2 0.0
15/10:00pm 12.1 8.3 9.7 85 1.2 ENE 20 26 11 14 1012.2 1011.8 0.0
15/09:30pm 11.8 8.0 9.9 88 1.0 ENE 20 28 11 15 1012.4 1012.0 0.0
15/09:00pm 11.6 7.9 10.0 90 0.8 E 20 26 11 14 1012.7 1012.3 0.0
15/08:30pm 11.9 8.2 10.3 90 0.8 E 20 26 11 14 1013.0 1012.6 0.0
15/08:00pm 12.4 8.8 10.6 89 0.9 E 20 28 11 15 1013.0 1012.6 0.0
15/07:30pm 12.9 9.0 10.8 87 1.1 E 22 30 12 16 1012.8 1012.4 0.0
15/07:00pm 13.4 9.4 10.6 83 1.5 E 22 30 12 16 1012.8 1012.4 0.0
15/06:30pm 14.4 9.6 10.4 77 2.1 E 26 35 14 19 1012.5 1012.1 0.0
15/06:00pm 15.7 10.8 9.8 68 3.1 E 26 35 14 19 1012.7 1012.3 0.0
15/05:30pm 17.4 12.5 9.8 61 4.1 E 26 35 14 19 1012.7 1012.3 0.0
15/05:00pm 19.0 15.1 10.8 59 4.5 ESE 22 32 12 17 1012.7 1012.3 0.0
15/04:30pm 19.4 15.1 10.9 58 4.7 E 24 37 13 20 1012.7 1012.3 0.0
15/04:00pm 19.5 14.4 10.5 56 4.9 ESE 28 37 15 20 1012.6 1012.2 0.0
15/03:30pm 20.5 15.4 10.6 53 5.5 ESE 28 35 15 19 1012.7 1012.3 0.0
15/03:00pm 21.2 16.0 10.4 50 6.0 ESE 28 37 15 20 1012.8 1012.4 0.0
15/02:30pm 22.6 17.7 10.1 45 6.9 ESE 26 35 14 19 1013.0 1012.6 0.0
15/02:00pm 22.9 18.3 9.7 43 7.3 ESE 24 33 13 18 1013.4 1013.0 0.0
15/01:30pm 24.3 20.6 4.6 28 10.0 NE 13 28 7 15 1013.7 1013.3 0.0
15/01:00pm 23.2 19.5 4.7 30 9.3 ENE 13 20 7 11 1014.4 1013.9 0.0
15/12:30pm 22.7 18.9 6.0 34 8.6 E 15 24 8 13 1014.7 1014.3 0.0
15/12:00pm 21.1 17.4 6.2 38 7.6 E 15 24 8 13 1015.2 1014.8 0.0
15/11:30am 20.9 17.2 6.4 39 7.4 ENE 15 24 8 13 1015.7 1015.3 0.0
15/11:00am 20.8 17.0 7.4 42 7.0 NE 17 24 9 13 1016.1 1015.7 0.0

Other formats

Comma delimited format used in spreadsheet applications
http://www.bom.gov.au/fwo/IDW60801/IDW60801.95636.axf

JavaScript Object Notation format (JSON) in row-major order
http://www.bom.gov.au/fwo/IDW60801/IDW60801.95636.json

Data quality

Most of these data are generated automatically and are frequently updated. Quality checks on data are not normally performed. It is possible for incorrect values to appear. Refer to information at About Latest Weather Observations and please check the disclaimer before using these data.